createdAt,value
2023-02-19T00:01:21.526Z,17.80
2023-02-19T00:03:50.689Z,17.90
2023-02-19T00:06:17.978Z,17.90
2023-02-19T00:08:45.055Z,17.90
2023-02-19T00:11:13.231Z,17.90
2023-02-19T00:13:41.204Z,17.90
2023-02-19T00:16:08.064Z,17.80
2023-02-19T00:18:35.041Z,17.80
2023-02-19T00:21:02.233Z,17.80
2023-02-19T00:23:29.170Z,17.80
2023-02-19T00:26:00.996Z,17.80
2023-02-19T00:28:30.065Z,17.80
2023-02-19T00:30:56.974Z,17.80
2023-02-19T00:33:23.771Z,17.80
2023-02-19T00:35:50.606Z,17.80
2023-02-19T00:38:17.350Z,17.80
2023-02-19T00:40:44.063Z,17.80
2023-02-19T00:43:10.946Z,17.80
2023-02-19T00:45:38.311Z,17.80
2023-02-19T00:48:05.076Z,17.80
2023-02-19T00:50:31.862Z,17.80
2023-02-19T00:52:58.593Z,17.80
2023-02-19T00:55:25.608Z,17.80
2023-02-19T00:57:52.440Z,17.80
2023-02-19T01:00:19.211Z,17.80
2023-02-19T01:02:45.971Z,17.80
2023-02-19T01:05:12.900Z,17.70
2023-02-19T01:07:39.767Z,17.70
2023-02-19T01:10:06.660Z,17.70
2023-02-19T01:12:33.510Z,17.80
2023-02-19T01:15:00.407Z,17.80
2023-02-19T01:17:29.967Z,17.80
2023-02-19T01:19:56.810Z,17.70
2023-02-19T01:22:23.553Z,17.70
2023-02-19T01:24:50.408Z,17.70
2023-02-19T01:27:17.191Z,17.70
2023-02-19T01:29:44.001Z,17.70
2023-02-19T01:32:10.772Z,17.70
2023-02-19T01:34:37.701Z,17.70
2023-02-19T01:37:04.572Z,17.70
2023-02-19T01:39:38.848Z,17.70
2023-02-19T01:42:06.106Z,17.70
2023-02-19T01:44:32.802Z,17.60
2023-02-19T01:46:59.492Z,17.60
2023-02-19T01:49:37.393Z,17.60
2023-02-19T01:52:15.666Z,17.60
2023-02-19T01:54:43.262Z,17.60
2023-02-19T01:57:13.557Z,17.60
2023-02-19T01:59:40.638Z,17.60
2023-02-19T02:02:07.563Z,17.60
2023-02-19T02:04:34.651Z,17.60
2023-02-19T02:07:02.681Z,17.60
2023-02-19T02:09:49.560Z,17.50
2023-02-19T02:12:16.346Z,17.50
2023-02-19T02:14:45.502Z,17.60
2023-02-19T02:17:26.060Z,17.60
2023-02-19T02:19:55.513Z,17.60
2023-02-19T02:22:35.191Z,17.60
2023-02-19T02:25:20.365Z,17.50
2023-02-19T02:28:05.958Z,17.50
2023-02-19T02:30:35.660Z,17.50
2023-02-19T02:33:11.466Z,17.50
2023-02-19T02:35:47.674Z,17.50
2023-02-19T02:38:15.622Z,17.50
2023-02-19T02:40:44.181Z,17.50
2023-02-19T02:43:11.838Z,17.50
2023-02-19T02:45:39.878Z,17.50
2023-02-19T02:48:25.572Z,17.40
2023-02-19T02:50:55.222Z,17.40
2023-02-19T02:53:43.346Z,17.40
2023-02-19T02:56:10.700Z,17.40
2023-02-19T02:58:37.956Z,17.40
2023-02-19T03:01:24.968Z,17.50
2023-02-19T03:03:54.781Z,17.50
2023-02-19T03:06:22.450Z,17.40
2023-02-19T03:08:52.759Z,17.40
2023-02-19T03:11:38.119Z,17.40
2023-02-19T03:14:26.909Z,17.40
2023-02-19T03:17:14.103Z,17.40
2023-02-19T03:19:42.806Z,17.40
2023-02-19T03:22:36.053Z,17.40
2023-02-19T03:25:32.409Z,17.40
2023-02-19T03:28:00.837Z,17.30
2023-02-19T03:30:35.892Z,17.30
2023-02-19T03:33:22.908Z,17.30
2023-02-19T03:35:52.476Z,17.30
2023-02-19T03:38:28.352Z,17.30
2023-02-19T03:41:01.353Z,17.30
2023-02-19T03:43:34.739Z,17.30
2023-02-19T03:46:07.330Z,17.40
2023-02-19T03:48:35.411Z,17.30
2023-02-19T03:51:08.080Z,17.30
2023-02-19T03:53:42.754Z,17.30
2023-02-19T03:56:13.107Z,17.30
2023-02-19T03:58:45.934Z,17.20
2023-02-19T04:01:25.796Z,17.30
2023-02-19T04:03:55.446Z,17.30
2023-02-19T04:06:29.992Z,17.30
2023-02-19T04:08:59.033Z,17.30
2023-02-19T04:11:27.317Z,17.30
2023-02-19T04:14:03.141Z,17.20
2023-02-19T04:16:30.379Z,17.30
2023-02-19T04:18:59.465Z,17.20
2023-02-19T04:21:26.801Z,17.20
2023-02-19T04:23:53.598Z,17.30
2023-02-19T04:26:21.867Z,17.30
2023-02-19T04:28:48.674Z,17.30
2023-02-19T04:31:15.474Z,17.20
2023-02-19T04:33:42.288Z,17.10
2023-02-19T04:36:11.190Z,17.10
2023-02-19T04:38:38.029Z,17.10
2023-02-19T04:41:04.848Z,17.10
2023-02-19T04:43:31.605Z,17.20
2023-02-19T04:46:00.153Z,17.30
2023-02-19T04:48:26.956Z,17.30
2023-02-19T04:50:53.777Z,17.30
2023-02-19T04:53:20.609Z,17.30
2023-02-19T04:55:48.194Z,17.30
2023-02-19T04:58:14.978Z,17.30
2023-02-19T05:00:41.719Z,17.20
2023-02-19T05:03:08.504Z,17.20
2023-02-19T05:05:35.358Z,17.20
2023-02-19T05:08:02.090Z,17.30
2023-02-19T05:10:28.853Z,17.30
2023-02-19T05:12:57.906Z,17.50
2023-02-19T05:15:24.762Z,17.80
2023-02-19T05:17:51.498Z,18.20
2023-02-19T05:20:18.546Z,18.60
2023-02-19T05:22:45.257Z,18.70
2023-02-19T05:25:11.973Z,19.00
2023-02-19T05:27:38.733Z,19.20
2023-02-19T05:30:05.788Z,19.50
2023-02-19T05:32:34.485Z,19.80
2023-02-19T05:35:01.286Z,19.90
2023-02-19T05:37:28.002Z,20.20
2023-02-19T05:39:54.702Z,20.30
2023-02-19T05:42:25.004Z,20.20
2023-02-19T05:44:51.775Z,20.20
2023-02-19T05:47:18.519Z,20.30
2023-02-19T05:49:45.356Z,20.30
2023-02-19T05:52:12.098Z,20.20
2023-02-19T05:54:38.869Z,20.20
2023-02-19T05:57:05.641Z,20.30
2023-02-19T05:59:32.469Z,20.40
2023-02-19T06:01:59.210Z,20.30
2023-02-19T06:04:26.185Z,20.40
2023-02-19T06:06:52.968Z,20.40
2023-02-19T06:09:19.713Z,20.40
2023-02-19T06:11:46.611Z,20.40
2023-02-19T06:14:14.112Z,20.50
2023-02-19T06:16:41.071Z,20.40
2023-02-19T06:19:08.196Z,20.40
2023-02-19T06:21:35.024Z,20.50
2023-02-19T06:24:06.024Z,20.70
2023-02-19T06:26:33.424Z,20.70
2023-02-19T06:29:00.230Z,20.70
2023-02-19T06:31:27.119Z,20.60
2023-02-19T06:33:55.199Z,20.70
2023-02-19T06:36:22.337Z,20.60
2023-02-19T06:38:49.186Z,20.70
2023-02-19T06:41:16.135Z,20.70
2023-02-19T06:43:42.954Z,20.70
2023-02-19T06:46:11.516Z,20.80
2023-02-19T06:48:39.000Z,20.70
2023-02-19T06:51:05.829Z,20.70
2023-02-19T06:53:32.549Z,20.70
2023-02-19T06:56:19.255Z,20.70
2023-02-19T06:58:46.046Z,20.80
2023-02-19T07:01:13.102Z,20.80
2023-02-19T07:03:40.123Z,20.80
2023-02-19T07:06:07.011Z,20.90
2023-02-19T07:08:33.769Z,20.90
2023-02-19T07:11:00.643Z,20.60
2023-02-19T07:13:27.421Z,20.70
2023-02-19T07:16:01.052Z,21.00
2023-02-19T07:18:28.068Z,21.00
2023-02-19T07:20:54.921Z,21.00
2023-02-19T07:23:21.764Z,21.10
2023-02-19T07:25:48.484Z,21.20
2023-02-19T07:28:16.389Z,21.20
2023-02-19T07:30:43.277Z,21.30
2023-02-19T07:33:10.676Z,21.30
2023-02-19T07:35:37.492Z,21.30
2023-02-19T07:38:04.277Z,21.40
2023-02-19T07:40:30.994Z,21.30
2023-02-19T07:42:59.229Z,21.40
2023-02-19T07:45:26.080Z,21.40
2023-02-19T07:47:52.810Z,21.50
2023-02-19T07:50:19.585Z,21.50
2023-02-19T07:52:46.538Z,21.50
2023-02-19T07:55:13.281Z,21.60
2023-02-19T07:57:40.046Z,21.60
2023-02-19T08:00:06.965Z,21.70
2023-02-19T08:02:52.063Z,21.70
2023-02-19T08:05:18.852Z,21.70
2023-02-19T08:07:45.653Z,21.80
2023-02-19T08:10:30.939Z,21.70
2023-02-19T08:13:17.009Z,21.50
2023-02-19T08:15:44.002Z,21.60
2023-02-19T08:18:11.505Z,21.50
2023-02-19T08:20:38.319Z,21.30
2023-02-19T08:23:05.170Z,21.30
2023-02-19T08:25:31.963Z,21.00
2023-02-19T08:28:00.378Z,19.60
2023-02-19T08:30:28.496Z,18.60
2023-02-19T08:32:55.503Z,18.50
2023-02-19T08:35:22.689Z,18.50
2023-02-19T08:37:49.861Z,18.40
2023-02-19T08:40:16.702Z,18.50
2023-02-19T08:42:43.420Z,18.60
2023-02-19T08:45:12.641Z,19.00
2023-02-19T08:47:39.617Z,19.40
2023-02-19T08:50:06.997Z,19.90
2023-02-19T08:52:34.168Z,19.90
2023-02-19T08:55:01.412Z,19.80
2023-02-19T08:57:29.284Z,19.70
2023-02-19T08:59:57.164Z,20.20
2023-02-19T09:02:26.707Z,20.70
2023-02-19T09:04:53.563Z,21.00
2023-02-19T09:07:20.467Z,21.10
2023-02-19T09:09:47.236Z,20.60
2023-02-19T09:12:14.170Z,20.30
2023-02-19T09:14:41.611Z,20.10
2023-02-19T09:17:09.701Z,20.10
2023-02-19T09:19:36.524Z,20.70
2023-02-19T09:22:04.514Z,21.20
2023-02-19T09:24:31.659Z,21.50
2023-02-19T09:26:58.500Z,21.70
2023-02-19T09:29:26.413Z,21.70
2023-02-19T09:31:59.677Z,21.70
2023-02-19T09:34:27.072Z,21.60
2023-02-19T09:36:54.681Z,21.50
2023-02-19T09:39:21.856Z,21.30
2023-02-19T09:41:52.001Z,20.50
2023-02-19T09:44:23.905Z,20.10
2023-02-19T09:46:51.771Z,19.80
2023-02-19T09:49:21.301Z,19.80
2023-02-19T09:51:56.821Z,20.20
2023-02-19T09:54:25.213Z,20.30
2023-02-19T09:56:53.152Z,20.10
2023-02-19T09:59:27.982Z,19.90
2023-02-19T10:01:59.273Z,19.70
2023-02-19T10:04:26.123Z,19.40
2023-02-19T10:06:52.999Z,19.10
2023-02-19T10:09:22.433Z,19.10
2023-02-19T10:11:50.036Z,19.30
2023-02-19T10:14:26.022Z,19.30
2023-02-19T10:16:53.196Z,19.20
2023-02-19T10:19:20.007Z,19.20
2023-02-19T10:21:46.938Z,19.00
2023-02-19T10:24:17.095Z,19.00
2023-02-19T10:26:43.848Z,19.00
2023-02-19T10:29:10.944Z,18.90
2023-02-19T10:31:37.767Z,18.70
2023-02-19T10:34:06.609Z,18.70
2023-02-19T10:36:37.256Z,18.50
2023-02-19T10:39:08.387Z,18.60
2023-02-19T10:41:41.996Z,18.60
2023-02-19T10:44:14.628Z,18.60
2023-02-19T10:46:45.305Z,18.50
2023-02-19T10:49:30.825Z,18.60
2023-02-19T10:52:01.621Z,18.60
2023-02-19T10:54:36.161Z,18.60
2023-02-19T10:57:15.771Z,18.60
2023-02-19T10:59:49.624Z,18.30
2023-02-19T11:02:17.848Z,18.10
2023-02-19T11:05:04.922Z,18.20
2023-02-19T11:07:31.802Z,18.20
2023-02-19T11:09:59.070Z,18.40
2023-02-19T11:12:30.911Z,18.40
2023-02-19T11:14:59.202Z,18.40
2023-02-19T11:17:30.098Z,18.40
2023-02-19T11:20:23.263Z,18.40
2023-02-19T11:22:50.714Z,18.20
2023-02-19T11:25:17.783Z,18.20
2023-02-19T11:27:54.890Z,18.20
2023-02-19T11:30:33.922Z,18.20
2023-02-19T11:33:17.382Z,18.20
2023-02-19T11:35:44.915Z,18.20
2023-02-19T11:38:13.151Z,18.20
2023-02-19T11:40:40.013Z,18.20
2023-02-19T11:43:19.069Z,18.20
2023-02-19T11:45:53.125Z,18.20
2023-02-19T11:48:20.239Z,18.10
2023-02-19T11:51:00.132Z,18.10
2023-02-19T11:53:29.560Z,18.10
2023-02-19T11:55:56.283Z,18.10
2023-02-19T11:58:41.904Z,18.10
2023-02-19T12:01:18.037Z,18.10
2023-02-19T12:04:00.305Z,18.10
2023-02-19T12:06:42.963Z,18.10
2023-02-19T12:09:17.079Z,18.10
2023-02-19T12:12:02.601Z,18.00
2023-02-19T12:14:29.496Z,18.00
2023-02-19T12:17:05.138Z,18.00
2023-02-19T12:19:32.003Z,18.00
2023-02-19T12:22:17.137Z,18.00
2023-02-19T12:25:02.814Z,18.00
2023-02-19T12:27:29.566Z,18.00
2023-02-19T12:29:59.040Z,18.00
2023-02-19T12:32:41.344Z,17.90
2023-02-19T12:35:08.046Z,17.90
2023-02-19T12:37:58.827Z,17.90
2023-02-19T12:40:25.542Z,17.90
2023-02-19T12:43:01.325Z,17.90
2023-02-19T12:45:37.810Z,17.90
2023-02-19T12:48:20.901Z,17.90
2023-02-19T12:50:48.857Z,17.90
2023-02-19T12:53:21.896Z,17.90
2023-02-19T12:55:48.861Z,17.90
2023-02-19T12:58:45.023Z,17.90
2023-02-19T13:01:15.135Z,17.90
2023-02-19T13:03:46.122Z,17.90
2023-02-19T13:06:15.791Z,17.90
2023-02-19T13:09:05.342Z,17.80
2023-02-19T13:11:53.533Z,17.70
2023-02-19T13:14:39.178Z,17.70
2023-02-19T13:17:27.622Z,17.70
2023-02-19T13:19:58.392Z,17.70
2023-02-19T13:22:48.844Z,17.70
2023-02-19T13:25:16.786Z,17.70
2023-02-19T13:27:49.352Z,17.80
2023-02-19T13:30:30.572Z,17.80
2023-02-19T13:33:05.941Z,17.70
2023-02-19T13:35:51.208Z,17.70
2023-02-19T13:38:18.153Z,17.70
2023-02-19T13:40:55.368Z,17.70
2023-02-19T13:43:26.923Z,17.70
2023-02-19T13:45:55.564Z,17.70
2023-02-19T13:48:33.765Z,17.70
2023-02-19T13:51:12.877Z,17.60
2023-02-19T13:53:42.682Z,17.70
2023-02-19T13:56:28.160Z,17.70
2023-02-19T13:59:13.832Z,17.60
2023-02-19T14:01:50.046Z,17.60
2023-02-19T14:04:19.924Z,17.50
2023-02-19T14:07:04.910Z,17.30
2023-02-19T14:09:35.465Z,17.10
2023-02-19T14:12:18.120Z,17.00
2023-02-19T14:14:49.617Z,16.90
2023-02-19T14:17:35.084Z,17.00
2023-02-19T14:20:01.906Z,16.90
2023-02-19T14:22:47.230Z,16.90
2023-02-19T14:25:26.092Z,16.80
2023-02-19T14:27:54.301Z,16.80
2023-02-19T14:30:22.614Z,16.80
2023-02-19T14:32:54.514Z,16.80
2023-02-19T14:35:27.601Z,16.80
2023-02-19T14:37:55.362Z,16.80
2023-02-19T14:40:24.092Z,16.80
2023-02-19T14:42:53.472Z,16.90
2023-02-19T14:45:20.742Z,16.90
2023-02-19T14:47:48.630Z,17.00
2023-02-19T14:50:19.999Z,17.00
2023-02-19T14:52:51.517Z,17.00
2023-02-19T14:55:30.437Z,17.00
2023-02-19T14:57:58.734Z,17.00
2023-02-19T15:00:27.816Z,17.00
2023-02-19T15:02:59.961Z,17.00
2023-02-19T15:05:28.064Z,17.00
2023-02-19T15:07:56.243Z,17.00
2023-02-19T15:10:23.296Z,17.00
2023-02-19T15:12:54.664Z,17.00
2023-02-19T15:15:25.815Z,17.00
2023-02-19T15:17:53.757Z,17.00
2023-02-19T15:20:22.882Z,17.00
2023-02-19T15:22:49.845Z,17.00
2023-02-19T15:25:18.292Z,17.00
2023-02-19T15:27:45.381Z,17.00
2023-02-19T15:30:23.414Z,16.90
2023-02-19T15:32:54.923Z,16.90
2023-02-19T15:35:23.994Z,16.90
2023-02-19T15:37:51.400Z,16.90
2023-02-19T15:40:19.934Z,16.90
2023-02-19T15:42:47.925Z,16.90
2023-02-19T15:45:21.238Z,16.90
2023-02-19T15:47:49.336Z,16.90
2023-02-19T15:50:17.814Z,16.90
2023-02-19T15:52:50.645Z,16.90
2023-02-19T15:55:17.386Z,16.90
2023-02-19T15:57:46.928Z,16.90
2023-02-19T16:00:19.930Z,16.90
2023-02-19T16:02:46.949Z,16.90
2023-02-19T16:05:17.578Z,16.90
2023-02-19T16:07:44.561Z,16.90
2023-02-19T16:10:20.580Z,16.90
2023-02-19T16:12:57.390Z,16.80
2023-02-19T16:15:24.257Z,16.90
2023-02-19T16:17:51.112Z,16.80
2023-02-19T16:20:26.021Z,16.80
2023-02-19T16:22:56.641Z,16.80
2023-02-19T16:25:28.589Z,16.80
2023-02-19T16:27:55.960Z,16.80
2023-02-19T16:30:31.096Z,16.80
2023-02-19T16:33:16.449Z,16.80
2023-02-19T16:35:45.122Z,16.80
2023-02-19T16:38:13.775Z,16.80
2023-02-19T16:40:43.462Z,16.80
2023-02-19T16:43:13.263Z,16.70
2023-02-19T16:45:46.752Z,16.70
2023-02-19T16:48:14.310Z,16.70
2023-02-19T16:50:46.310Z,16.70
2023-02-19T16:53:31.296Z,16.70
2023-02-19T16:56:00.208Z,16.70
2023-02-19T16:58:27.247Z,16.70
2023-02-19T17:00:54.294Z,16.70
2023-02-19T17:03:22.452Z,16.70
2023-02-19T17:05:49.527Z,16.70
2023-02-19T17:08:28.935Z,16.70
2023-02-19T17:10:56.268Z,16.70
2023-02-19T17:13:23.227Z,16.70
2023-02-19T17:15:50.126Z,16.60
2023-02-19T17:18:17.110Z,16.60
2023-02-19T17:20:48.085Z,16.60
2023-02-19T17:23:15.068Z,16.70
2023-02-19T17:25:42.152Z,16.60
2023-02-19T17:28:08.970Z,16.60
2023-02-19T17:30:37.259Z,16.60
2023-02-19T17:33:05.272Z,16.60
2023-02-19T17:35:32.127Z,16.60
2023-02-19T17:37:59.000Z,16.50
2023-02-19T17:40:33.220Z,16.60
2023-02-19T17:43:00.680Z,16.60
2023-02-19T17:45:27.429Z,16.50
2023-02-19T17:47:54.300Z,16.50
2023-02-19T17:50:22.717Z,16.50
2023-02-19T17:52:49.504Z,16.50
2023-02-19T17:55:18.439Z,16.50
2023-02-19T17:57:46.245Z,16.50
2023-02-19T18:00:14.441Z,16.50
2023-02-19T18:02:41.244Z,16.50
2023-02-19T18:05:08.512Z,16.50
2023-02-19T18:07:36.256Z,16.50
2023-02-19T18:10:03.869Z,16.40
2023-02-19T18:12:30.799Z,16.40
2023-02-19T18:14:58.357Z,16.50
2023-02-19T18:17:26.039Z,16.50
2023-02-19T18:19:53.680Z,16.40
2023-02-19T18:22:20.771Z,16.40
2023-02-19T18:24:51.932Z,16.40
2023-02-19T18:27:20.661Z,16.40
2023-02-19T18:29:54.650Z,16.40
2023-02-19T18:32:24.986Z,16.40
2023-02-19T18:34:55.784Z,16.40
2023-02-19T18:37:23.109Z,16.40
2023-02-19T18:39:49.962Z,16.40
2023-02-19T18:42:16.816Z,16.40
2023-02-19T18:44:43.975Z,16.40
2023-02-19T18:47:11.619Z,16.40
2023-02-19T18:49:38.539Z,16.30
2023-02-19T18:52:05.824Z,16.30
2023-02-19T18:54:32.717Z,16.30
2023-02-19T18:57:03.821Z,16.30
2023-02-19T18:59:31.068Z,16.30
2023-02-19T19:01:57.930Z,16.30
2023-02-19T19:04:24.784Z,16.30
2023-02-19T19:06:51.618Z,16.30
2023-02-19T19:09:18.416Z,16.30
2023-02-19T19:11:46.612Z,16.30
2023-02-19T19:14:13.587Z,16.30
2023-02-19T19:16:40.893Z,16.30
2023-02-19T19:19:07.710Z,16.30
2023-02-19T19:21:34.626Z,16.30
2023-02-19T19:24:01.562Z,16.30
2023-02-19T19:26:28.391Z,16.30
2023-02-19T19:28:55.202Z,16.30
2023-02-19T19:31:22.319Z,16.30
2023-02-19T19:33:49.261Z,16.30
2023-02-19T19:36:19.588Z,16.30
2023-02-19T19:38:46.904Z,16.20
2023-02-19T19:41:14.513Z,16.20
2023-02-19T19:43:41.416Z,16.20
2023-02-19T19:46:11.199Z,16.20
2023-02-19T19:48:41.068Z,16.30
2023-02-19T19:51:08.093Z,16.20
2023-02-19T19:53:34.885Z,16.20
2023-02-19T19:56:01.994Z,16.20
2023-02-19T19:58:28.958Z,16.20
2023-02-19T20:00:56.235Z,16.20
2023-02-19T20:03:23.070Z,16.20
2023-02-19T20:05:53.080Z,16.20
2023-02-19T20:08:20.180Z,16.10
2023-02-19T20:10:47.026Z,16.10
2023-02-19T20:13:17.771Z,16.10
2023-02-19T20:15:44.720Z,16.10
2023-02-19T20:18:11.828Z,16.10
2023-02-19T20:20:38.619Z,16.10
2023-02-19T20:23:05.362Z,16.10
2023-02-19T20:25:32.198Z,16.10
2023-02-19T20:27:59.108Z,16.10
2023-02-19T20:30:25.914Z,16.10
2023-02-19T20:32:54.062Z,16.10
2023-02-19T20:35:21.109Z,16.10
2023-02-19T20:37:49.424Z,16.10
2023-02-19T20:40:17.520Z,16.00
2023-02-19T20:42:44.279Z,16.00
2023-02-19T20:45:11.138Z,16.00
2023-02-19T20:47:39.487Z,16.00
2023-02-19T20:50:06.985Z,16.00
2023-02-19T20:52:33.747Z,16.00
2023-02-19T20:55:00.670Z,16.00
2023-02-19T20:57:28.732Z,16.00
2023-02-19T20:59:55.503Z,16.00
2023-02-19T21:02:29.107Z,16.00
2023-02-19T21:04:56.771Z,16.00
2023-02-19T21:07:24.348Z,16.00
2023-02-19T21:09:52.181Z,16.00
2023-02-19T21:12:19.460Z,16.00
2023-02-19T21:14:46.612Z,16.00
2023-02-19T21:17:13.574Z,15.90
2023-02-19T21:19:40.492Z,15.90
2023-02-19T21:22:07.466Z,15.90
2023-02-19T21:24:34.454Z,15.90
2023-02-19T21:27:01.219Z,15.90
2023-02-19T21:29:28.156Z,15.90
2023-02-19T21:31:56.161Z,15.90
2023-02-19T21:34:24.782Z,15.90
2023-02-19T21:36:51.940Z,15.90
2023-02-19T21:39:20.121Z,15.90
2023-02-19T21:41:47.125Z,15.90
2023-02-19T21:44:14.242Z,15.90
2023-02-19T21:46:41.176Z,15.80
2023-02-19T21:49:08.057Z,15.90
2023-02-19T21:51:36.192Z,15.80
2023-02-19T21:54:03.576Z,15.80
2023-02-19T21:56:31.450Z,15.80
2023-02-19T21:58:58.506Z,15.80
2023-02-19T22:01:33.304Z,15.80
2023-02-19T22:04:00.246Z,15.80
2023-02-19T22:06:29.189Z,15.90
2023-02-19T22:08:56.342Z,15.80
2023-02-19T22:11:23.110Z,15.90
2023-02-19T22:13:50.475Z,15.80
2023-02-19T22:16:17.753Z,15.80
2023-02-19T22:18:52.184Z,15.80
2023-02-19T22:21:19.578Z,15.80
2023-02-19T22:23:47.896Z,15.80
2023-02-19T22:26:21.790Z,15.80
2023-02-19T22:28:48.637Z,15.80
2023-02-19T22:31:16.447Z,15.80
2023-02-19T22:33:43.489Z,15.80
2023-02-19T22:36:23.412Z,15.80
2023-02-19T22:38:50.549Z,15.80
2023-02-19T22:41:18.247Z,15.80
2023-02-19T22:43:45.264Z,15.80
2023-02-19T22:46:14.544Z,15.80
2023-02-19T22:48:41.484Z,15.80
2023-02-19T22:51:13.238Z,15.80
2023-02-19T22:53:46.720Z,15.80
2023-02-19T22:56:14.234Z,15.80
2023-02-19T22:58:42.012Z,15.80
2023-02-19T23:01:09.623Z,15.70
2023-02-19T23:03:45.057Z,15.70
2023-02-19T23:06:12.086Z,15.70
2023-02-19T23:08:39.021Z,15.70
2023-02-19T23:11:05.778Z,15.70
2023-02-19T23:13:32.615Z,15.70
2023-02-19T23:15:59.344Z,15.80
2023-02-19T23:18:26.097Z,15.70
2023-02-19T23:20:52.932Z,15.70
2023-02-19T23:23:19.723Z,15.70
2023-02-19T23:25:46.460Z,15.70
2023-02-19T23:28:13.228Z,15.70
2023-02-19T23:30:40.052Z,15.70
2023-02-19T23:33:06.849Z,15.70
2023-02-19T23:35:33.697Z,15.70
2023-02-19T23:38:01.407Z,15.70
2023-02-19T23:40:28.224Z,15.70
2023-02-19T23:42:56.899Z,15.70
2023-02-19T23:45:23.642Z,15.70
2023-02-19T23:47:50.447Z,15.70
2023-02-19T23:50:17.497Z,15.70
2023-02-19T23:52:44.232Z,15.70
2023-02-19T23:55:10.988Z,15.70
2023-02-19T23:57:37.788Z,15.70
